createdAt,value
2019-02-03T00:00:51.145Z,2.89
2019-02-03T00:01:52.553Z,2.92
2019-02-03T00:02:53.952Z,2.92
2019-02-03T00:03:55.376Z,2.90
2019-02-03T00:04:56.805Z,2.89
2019-02-03T00:05:58.226Z,2.87
2019-02-03T00:07:03.299Z,2.80
2019-02-03T00:08:00.998Z,2.90
2019-02-03T00:09:02.434Z,2.89
2019-02-03T00:10:03.833Z,2.80
2019-02-03T00:11:05.254Z,2.98
2019-02-03T00:12:06.675Z,2.95
2019-02-03T00:13:08.095Z,2.87
2019-02-03T00:14:09.506Z,2.84
2019-02-03T00:15:10.897Z,2.84
2019-02-03T00:16:12.319Z,2.83
2019-02-03T00:17:13.869Z,2.89
2019-02-03T00:18:15.137Z,2.86
2019-02-03T00:19:16.562Z,2.99
2019-02-03T00:20:17.985Z,2.95
2019-02-03T00:21:19.413Z,2.86
2019-02-03T00:22:20.832Z,2.87
2019-02-03T00:23:22.251Z,2.90
2019-02-03T00:24:23.687Z,2.89
2019-02-03T00:25:25.230Z,2.87
2019-02-03T00:26:26.667Z,2.86
2019-02-03T00:27:28.027Z,2.89
2019-02-03T00:28:29.431Z,2.83
2019-02-03T00:29:30.827Z,2.90
2019-02-03T00:30:32.239Z,2.87
2019-02-03T00:31:33.800Z,2.89
2019-02-03T00:32:35.013Z,2.86
2019-02-03T00:33:37.918Z,2.81
2019-02-03T00:34:39.262Z,2.81
2019-02-03T00:35:40.673Z,2.89
2019-02-03T00:36:42.059Z,2.87
2019-02-03T00:37:43.494Z,2.92
2019-02-03T00:38:44.866Z,2.94
2019-02-03T00:39:46.310Z,2.87
2019-02-03T00:40:47.757Z,2.79
2019-02-03T00:41:49.042Z,2.83
2019-02-03T00:42:50.394Z,2.89
2019-02-03T00:43:51.799Z,2.87
2019-02-03T00:44:53.192Z,2.83
2019-02-03T00:45:54.590Z,2.90
2019-02-03T00:46:55.986Z,2.86
2019-02-03T00:47:57.374Z,2.87
2019-02-03T00:48:58.766Z,2.86
2019-02-03T00:50:00.187Z,2.86
2019-02-03T00:51:01.562Z,2.90
2019-02-03T00:52:02.956Z,2.94
2019-02-03T00:53:04.305Z,2.86
2019-02-03T00:54:05.713Z,2.84
2019-02-03T00:55:07.113Z,2.87
2019-02-03T00:56:08.509Z,2.89
2019-02-03T00:57:09.915Z,2.86
2019-02-03T00:58:11.305Z,2.90
2019-02-03T00:59:12.685Z,2.84
2019-02-03T01:00:14.083Z,2.95
2019-02-03T01:01:15.487Z,2.79
2019-02-03T01:02:16.883Z,2.83
2019-02-03T01:03:18.233Z,2.89
2019-02-03T01:04:19.631Z,2.83
2019-02-03T01:05:21.086Z,2.87
2019-02-03T01:06:22.489Z,2.83
2019-02-03T01:07:27.695Z,2.87
2019-02-03T01:08:25.234Z,2.95
2019-02-03T01:09:26.638Z,2.80
2019-02-03T01:10:28.058Z,2.86
2019-02-03T01:11:29.422Z,2.89
2019-02-03T01:12:30.818Z,2.87
2019-02-03T01:13:32.342Z,2.97
2019-02-03T01:14:33.575Z,2.87
2019-02-03T01:15:34.970Z,2.83
2019-02-03T01:16:36.378Z,2.83
2019-02-03T01:17:37.773Z,2.95
2019-02-03T01:18:39.172Z,2.84
2019-02-03T01:19:40.561Z,2.80
2019-02-03T01:20:41.953Z,2.83
2019-02-03T01:21:43.357Z,2.81
2019-02-03T01:22:44.721Z,2.90
2019-02-03T01:23:46.114Z,2.87
2019-02-03T01:24:47.586Z,2.92
2019-02-03T01:25:48.861Z,2.77
2019-02-03T01:26:50.263Z,2.90
2019-02-03T01:27:51.649Z,2.86
2019-02-03T01:28:53.051Z,2.92
2019-02-03T01:29:54.447Z,2.92
2019-02-03T01:30:55.853Z,2.86
2019-02-03T01:31:57.252Z,2.92
2019-02-03T01:32:58.618Z,2.87
2019-02-03T01:34:00.006Z,2.87
2019-02-03T01:35:01.391Z,2.84
2019-02-03T01:36:02.801Z,2.89
2019-02-03T01:37:04.187Z,2.92
2019-02-03T01:38:05.588Z,2.89
2019-02-03T01:39:06.984Z,2.87
2019-02-03T01:40:08.374Z,2.86
2019-02-03T01:41:09.770Z,2.81
2019-02-03T01:42:11.197Z,2.86
2019-02-03T01:43:12.642Z,2.87
2019-02-03T01:44:14.032Z,2.80
2019-02-03T01:45:15.422Z,2.89
2019-02-03T01:46:16.810Z,2.95
2019-02-03T01:47:18.213Z,2.84
2019-02-03T01:48:19.608Z,2.87
2019-02-03T01:49:21.007Z,2.83
2019-02-03T01:50:22.394Z,2.90
2019-02-03T01:51:23.795Z,2.90
2019-02-03T01:52:25.147Z,2.87
2019-02-03T01:53:26.567Z,2.84
2019-02-03T01:54:27.969Z,2.86
2019-02-03T01:55:29.361Z,2.89
2019-02-03T01:56:30.749Z,2.90
2019-02-03T01:57:32.150Z,2.83
2019-02-03T01:58:33.545Z,2.86
2019-02-03T01:59:34.962Z,2.84
2019-02-03T02:00:36.342Z,2.90
2019-02-03T02:01:37.733Z,2.84
2019-02-03T02:02:39.088Z,2.94
2019-02-03T02:03:40.484Z,2.98
2019-02-03T02:04:41.882Z,2.99
2019-02-03T02:05:43.273Z,2.95
2019-02-03T02:06:44.668Z,2.95
2019-02-03T02:07:51.688Z,2.89
2019-02-03T02:08:47.425Z,2.87
2019-02-03T02:09:48.804Z,3.02
2019-02-03T02:10:50.200Z,2.89
2019-02-03T02:11:51.593Z,2.83
2019-02-03T02:12:52.957Z,2.95
2019-02-03T02:13:54.346Z,2.90
2019-02-03T02:14:55.738Z,2.86
2019-02-03T02:15:57.140Z,2.89
2019-02-03T02:16:58.548Z,2.87
2019-02-03T02:17:59.992Z,2.95
2019-02-03T02:19:01.356Z,3.02
2019-02-03T02:20:02.749Z,2.86
2019-02-03T02:21:04.139Z,2.98
2019-02-03T02:22:05.514Z,2.98
2019-02-03T02:23:06.900Z,2.98
2019-02-03T02:24:08.297Z,2.97
2019-02-03T02:25:09.695Z,2.87
2019-02-03T02:26:11.085Z,2.86
2019-02-03T02:27:12.453Z,2.84
2019-02-03T02:28:13.869Z,2.87
2019-02-03T02:29:15.268Z,2.83
2019-02-03T02:30:16.665Z,2.87
2019-02-03T02:31:18.054Z,2.84
2019-02-03T02:32:19.416Z,2.86
2019-02-03T02:33:20.809Z,2.89
2019-02-03T02:34:22.171Z,2.86
2019-02-03T02:35:23.564Z,2.90
2019-02-03T02:36:25.106Z,2.81
2019-02-03T02:37:26.319Z,2.89
2019-02-03T02:38:27.703Z,2.87
2019-02-03T02:39:29.097Z,2.95
2019-02-03T02:40:30.495Z,2.86
2019-02-03T02:41:31.853Z,2.81
2019-02-03T02:42:33.248Z,2.87
2019-02-03T02:43:34.648Z,2.90
2019-02-03T02:44:36.040Z,2.92
2019-02-03T02:45:37.454Z,2.92
2019-02-03T02:46:38.846Z,2.97
2019-02-03T02:47:40.936Z,2.87
2019-02-03T02:48:42.319Z,2.98
2019-02-03T02:49:43.719Z,2.87
2019-02-03T02:50:45.124Z,2.99
2019-02-03T02:51:46.461Z,2.87
2019-02-03T02:52:47.845Z,2.97
2019-02-03T02:53:49.246Z,2.92
2019-02-03T02:54:50.648Z,2.84
2019-02-03T02:55:52.166Z,2.97
2019-02-03T02:56:53.395Z,2.92
2019-02-03T02:57:54.785Z,2.99
2019-02-03T02:58:56.181Z,2.94
2019-02-03T02:59:57.581Z,2.86
2019-02-03T03:00:58.937Z,2.90
2019-02-03T03:02:00.326Z,2.98
2019-02-03T03:03:01.725Z,2.95
2019-02-03T03:04:03.118Z,2.95
2019-02-03T03:05:04.507Z,2.99
2019-02-03T03:06:05.910Z,3.01
2019-02-03T03:07:07.297Z,2.92
2019-02-03T03:08:18.470Z,2.90
2019-02-03T03:09:10.043Z,2.99
2019-02-03T03:10:11.453Z,2.95
2019-02-03T03:11:12.850Z,2.92
2019-02-03T03:12:14.256Z,2.95
2019-02-03T03:13:15.650Z,3.01
2019-02-03T03:14:17.054Z,3.02
2019-02-03T03:15:18.450Z,3.02
2019-02-03T03:16:19.853Z,2.98
2019-02-03T03:17:21.254Z,2.95
2019-02-03T03:18:22.656Z,2.97
2019-02-03T03:19:24.046Z,2.97
2019-02-03T03:20:25.447Z,2.98
2019-02-03T03:21:26.797Z,2.95
2019-02-03T03:22:28.195Z,2.99
2019-02-03T03:23:29.589Z,2.98
2019-02-03T03:24:30.991Z,3.04
2019-02-03T03:25:32.396Z,2.95
2019-02-03T03:26:33.801Z,3.02
2019-02-03T03:27:35.212Z,3.01
2019-02-03T03:28:36.609Z,2.95
2019-02-03T03:29:38.001Z,2.97
2019-02-03T03:30:39.414Z,3.08
2019-02-03T03:31:40.812Z,3.01
2019-02-03T03:32:42.135Z,3.02
2019-02-03T03:33:43.538Z,3.01
2019-02-03T03:34:44.938Z,3.08
2019-02-03T03:35:46.352Z,3.07
2019-02-03T03:36:47.748Z,3.01
2019-02-03T03:37:49.154Z,3.01
2019-02-03T03:38:50.554Z,2.97
2019-02-03T03:39:51.951Z,3.05
2019-02-03T03:40:53.304Z,3.02
2019-02-03T03:41:54.696Z,3.05
2019-02-03T03:42:56.129Z,2.99
2019-02-03T03:43:57.489Z,3.02
2019-02-03T03:44:58.893Z,3.02
2019-02-03T03:46:00.285Z,3.05
2019-02-03T03:47:01.677Z,3.08
2019-02-03T03:48:03.069Z,3.10
2019-02-03T03:49:04.470Z,3.04
2019-02-03T03:50:05.863Z,2.97
2019-02-03T03:51:07.217Z,3.07
2019-02-03T03:52:08.622Z,3.01
2019-02-03T03:53:10.020Z,3.02
2019-02-03T03:54:11.414Z,3.05
2019-02-03T03:55:12.810Z,3.02
2019-02-03T03:56:14.201Z,3.13
2019-02-03T03:57:15.598Z,3.10
2019-02-03T03:58:16.988Z,3.02
2019-02-03T03:59:18.383Z,3.05
2019-02-03T04:00:19.774Z,3.02
2019-02-03T04:01:21.152Z,3.08
2019-02-03T04:02:22.552Z,3.05
2019-02-03T04:03:23.943Z,3.10
2019-02-03T04:04:25.348Z,3.10
2019-02-03T04:05:26.756Z,3.01
2019-02-03T04:06:28.154Z,3.10
2019-02-03T04:07:29.548Z,3.10
2019-02-03T04:08:30.899Z,3.01
2019-02-03T04:09:32.300Z,3.01
2019-02-03T04:10:33.652Z,3.05
2019-02-03T04:11:35.048Z,3.01
2019-02-03T04:12:36.434Z,2.99
2019-02-03T04:13:38.738Z,3.07
2019-02-03T04:14:40.134Z,2.99
2019-02-03T04:15:41.535Z,3.01
2019-02-03T04:16:42.923Z,3.04
2019-02-03T04:17:44.323Z,3.07
2019-02-03T04:18:45.709Z,3.04
2019-02-03T04:19:47.100Z,3.13
2019-02-03T04:20:48.463Z,3.05
2019-02-03T04:21:49.865Z,3.05
2019-02-03T04:22:51.266Z,3.04
2019-02-03T04:23:52.666Z,3.05
2019-02-03T04:24:54.086Z,3.04
2019-02-03T04:25:55.474Z,3.01
2019-02-03T04:26:56.873Z,3.08
2019-02-03T04:27:58.272Z,3.05
2019-02-03T04:28:59.664Z,3.05
2019-02-03T04:30:01.060Z,2.99
2019-02-03T04:31:02.424Z,3.01
2019-02-03T04:32:03.825Z,3.08
2019-02-03T04:33:05.218Z,3.01
2019-02-03T04:34:06.610Z,3.02
2019-02-03T04:35:08.000Z,3.05
2019-02-03T04:36:09.395Z,3.17
2019-02-03T04:37:10.802Z,3.07
2019-02-03T04:38:12.211Z,3.13
2019-02-03T04:39:13.602Z,3.13
2019-02-03T04:40:14.994Z,3.08
2019-02-03T04:41:16.387Z,3.07
2019-02-03T04:42:17.789Z,3.17
2019-02-03T04:43:19.199Z,3.22
2019-02-03T04:44:20.601Z,3.17
2019-02-03T04:45:22.875Z,3.12
2019-02-03T04:46:23.364Z,3.10
2019-02-03T04:47:24.777Z,3.19
2019-02-03T04:48:26.189Z,3.13
2019-02-03T04:49:27.577Z,3.15
2019-02-03T04:50:28.941Z,3.13
2019-02-03T04:51:30.341Z,3.16
2019-02-03T04:52:31.726Z,3.12
2019-02-03T04:53:33.135Z,3.13
2019-02-03T04:54:34.520Z,3.16
2019-02-03T04:55:35.921Z,3.13
2019-02-03T04:56:37.313Z,3.26
2019-02-03T04:57:38.715Z,3.16
2019-02-03T04:58:40.110Z,3.20
2019-02-03T04:59:41.506Z,3.15
2019-02-03T05:00:42.868Z,3.10
2019-02-03T05:01:44.273Z,3.20
2019-02-03T05:02:45.667Z,3.17
2019-02-03T05:03:47.068Z,3.08
2019-02-03T05:04:48.467Z,3.08
2019-02-03T05:05:49.866Z,3.22
2019-02-03T05:06:51.253Z,3.22
2019-02-03T05:07:52.652Z,3.23
2019-02-03T05:08:54.051Z,3.22
2019-02-03T05:09:55.454Z,3.15
2019-02-03T05:10:56.837Z,3.23
2019-02-03T05:11:58.231Z,3.15
2019-02-03T05:12:59.628Z,3.16
2019-02-03T05:14:01.016Z,3.19
2019-02-03T05:15:02.415Z,3.17
2019-02-03T05:16:03.815Z,3.19
2019-02-03T05:17:05.205Z,3.28
2019-02-03T05:18:06.597Z,3.22
2019-02-03T05:19:07.992Z,3.20
2019-02-03T05:20:09.363Z,3.23
2019-02-03T05:21:10.750Z,3.22
2019-02-03T05:22:12.154Z,3.19
2019-02-03T05:23:13.541Z,3.22
2019-02-03T05:24:15.008Z,3.19
2019-02-03T05:25:16.292Z,3.28
2019-02-03T05:26:17.690Z,3.20
2019-02-03T05:27:19.095Z,3.19
2019-02-03T05:28:20.490Z,3.28
2019-02-03T05:29:21.878Z,3.25
2019-02-03T05:30:23.233Z,3.23
2019-02-03T05:31:24.630Z,3.15
2019-02-03T05:32:26.031Z,3.19
2019-02-03T05:33:27.418Z,3.26
2019-02-03T05:34:28.831Z,3.08
2019-02-03T05:35:30.223Z,3.20
2019-02-03T05:36:31.623Z,3.15
2019-02-03T05:37:33.017Z,3.08
2019-02-03T05:38:34.405Z,3.19
2019-02-03T05:39:35.772Z,3.20
2019-02-03T05:40:37.192Z,3.12
2019-02-03T05:41:38.560Z,3.15
2019-02-03T05:42:39.951Z,3.12
2019-02-03T05:43:41.357Z,3.17
2019-02-03T05:44:42.767Z,3.08
2019-02-03T05:45:44.152Z,3.13
2019-02-03T05:46:45.557Z,3.23
2019-02-03T05:47:49.864Z,3.22
2019-02-03T05:48:48.327Z,3.22
2019-02-03T05:49:49.686Z,3.25
2019-02-03T05:50:51.076Z,3.23
2019-02-03T05:51:52.472Z,3.23
2019-02-03T05:52:53.874Z,3.16
2019-02-03T05:53:55.276Z,3.22
2019-02-03T05:54:56.676Z,3.23
2019-02-03T05:55:58.071Z,3.22
2019-02-03T05:56:59.463Z,3.22
2019-02-03T05:58:00.854Z,3.17
2019-02-03T05:59:02.222Z,3.16
2019-02-03T06:00:03.600Z,3.12
2019-02-03T06:01:05.005Z,3.15
2019-02-03T06:02:06.402Z,3.08
2019-02-03T06:03:07.797Z,3.16
2019-02-03T06:04:09.195Z,3.08
2019-02-03T06:05:10.583Z,3.13
2019-02-03T06:06:11.999Z,3.17
2019-02-03T06:07:13.403Z,3.13
2019-02-03T06:08:14.819Z,3.12
2019-02-03T06:09:16.164Z,3.12
2019-02-03T06:10:17.585Z,3.16
2019-02-03T06:11:18.978Z,3.15
2019-02-03T06:12:20.368Z,3.13
2019-02-03T06:13:21.764Z,3.10
2019-02-03T06:14:23.148Z,3.16
2019-02-03T06:15:24.549Z,3.17
2019-02-03T06:16:25.959Z,3.08
2019-02-03T06:17:27.343Z,3.10
2019-02-03T06:18:28.742Z,3.17
2019-02-03T06:19:30.100Z,3.13
2019-02-03T06:20:31.496Z,3.15
2019-02-03T06:21:32.912Z,3.20
2019-02-03T06:22:34.313Z,3.13
2019-02-03T06:23:35.704Z,3.25
2019-02-03T06:24:37.116Z,3.22
2019-02-03T06:25:38.516Z,3.23
2019-02-03T06:26:39.903Z,3.19
2019-02-03T06:27:41.296Z,3.31
2019-02-03T06:28:42.659Z,3.20
2019-02-03T06:29:44.066Z,3.15
2019-02-03T06:30:45.463Z,3.26
2019-02-03T06:31:46.857Z,3.25
2019-02-03T06:32:48.265Z,3.28
2019-02-03T06:33:49.670Z,3.20
2019-02-03T06:34:51.068Z,3.22
2019-02-03T06:35:52.460Z,3.28
2019-02-03T06:36:53.850Z,3.19
2019-02-03T06:37:55.243Z,3.25
2019-02-03T06:38:56.610Z,3.16
2019-02-03T06:39:58.002Z,3.20
2019-02-03T06:40:59.397Z,3.22
2019-02-03T06:42:00.788Z,3.22
2019-02-03T06:43:02.197Z,3.22
2019-02-03T06:44:03.586Z,3.25
2019-02-03T06:45:04.976Z,3.30
2019-02-03T06:46:06.366Z,3.23
2019-02-03T06:47:07.773Z,3.20
2019-02-03T06:48:09.165Z,3.25
2019-02-03T06:49:10.514Z,3.17
2019-02-03T06:50:11.911Z,3.23
2019-02-03T06:51:13.310Z,3.19
2019-02-03T06:52:14.708Z,3.25
2019-02-03T06:53:16.115Z,3.19
2019-02-03T06:54:17.522Z,3.22
2019-02-03T06:55:18.934Z,3.22
2019-02-03T06:56:20.323Z,3.20
2019-02-03T06:57:21.725Z,3.19
2019-02-03T06:58:23.119Z,3.08
2019-02-03T06:59:24.489Z,3.20
2019-02-03T07:00:25.893Z,3.26
2019-02-03T07:01:27.284Z,3.25
2019-02-03T07:02:28.681Z,3.25
2019-02-03T07:03:30.094Z,3.19
2019-02-03T07:04:31.620Z,3.19
2019-02-03T07:05:32.853Z,3.22
2019-02-03T07:06:34.270Z,3.20
2019-02-03T07:07:35.659Z,3.31
2019-02-03T07:08:37.047Z,3.20
2019-02-03T07:09:38.441Z,3.25
2019-02-03T07:10:39.844Z,3.23
2019-02-03T07:11:41.251Z,3.22
2019-02-03T07:12:42.658Z,3.20
2019-02-03T07:13:44.053Z,3.28
2019-02-03T07:14:45.452Z,3.33
2019-02-03T07:15:46.844Z,3.22
2019-02-03T07:16:48.243Z,3.20
2019-02-03T07:17:49.642Z,3.20
2019-02-03T07:18:51.005Z,3.33
2019-02-03T07:19:52.413Z,3.31
2019-02-03T07:20:53.771Z,3.28
2019-02-03T07:21:55.172Z,3.34
2019-02-03T07:22:56.571Z,3.31
2019-02-03T07:23:57.985Z,3.26
2019-02-03T07:24:59.383Z,3.26
2019-02-03T07:26:00.792Z,3.19
2019-02-03T07:27:02.191Z,3.26
2019-02-03T07:28:03.553Z,3.25
2019-02-03T07:29:04.959Z,3.33
2019-02-03T07:30:06.352Z,3.34
2019-02-03T07:31:07.763Z,3.34
2019-02-03T07:32:09.161Z,3.20
2019-02-03T07:33:10.560Z,3.31
2019-02-03T07:34:11.953Z,3.34
2019-02-03T07:35:13.350Z,3.20
2019-02-03T07:36:14.755Z,3.26
2019-02-03T07:37:16.146Z,3.33
2019-02-03T07:38:17.500Z,3.28
2019-02-03T07:39:18.895Z,3.39
2019-02-03T07:40:20.294Z,3.35
2019-02-03T07:41:21.695Z,3.49
2019-02-03T07:42:23.092Z,3.35
2019-02-03T07:43:24.484Z,3.31
2019-02-03T07:44:25.894Z,3.35
2019-02-03T07:45:27.303Z,3.33
2019-02-03T07:46:28.696Z,3.31
2019-02-03T07:47:30.092Z,3.34
2019-02-03T07:48:31.565Z,3.41
2019-02-03T07:49:32.815Z,3.33
2019-02-03T07:50:34.215Z,3.37
2019-02-03T07:51:35.640Z,3.41
2019-02-03T07:52:37.043Z,3.42
2019-02-03T07:53:38.463Z,3.37
2019-02-03T07:54:39.863Z,3.37
2019-02-03T07:55:41.258Z,3.37
2019-02-03T07:56:42.724Z,3.35
2019-02-03T07:57:44.060Z,3.41
2019-02-03T07:58:45.471Z,3.49
2019-02-03T07:59:46.873Z,3.49
2019-02-03T08:00:48.281Z,3.46
2019-02-03T08:01:49.722Z,3.44
2019-02-03T08:02:51.084Z,3.45
2019-02-03T08:03:52.481Z,3.46
2019-02-03T08:04:53.883Z,3.52
2019-02-03T08:05:55.294Z,3.45
2019-02-03T08:06:56.700Z,3.50
2019-02-03T08:07:58.102Z,3.50
2019-02-03T08:08:59.514Z,3.49
2019-02-03T08:10:00.910Z,3.46
2019-02-03T08:11:04.627Z,3.54
2019-02-03T08:12:03.673Z,3.50
2019-02-03T08:13:05.075Z,3.52
2019-02-03T08:14:06.466Z,3.50
2019-02-03T08:15:07.860Z,3.57
2019-02-03T08:16:09.262Z,3.54
2019-02-03T08:17:10.623Z,3.56
2019-02-03T08:18:12.028Z,3.57
2019-02-03T08:19:13.432Z,3.59
2019-02-03T08:20:14.838Z,3.68
2019-02-03T08:21:16.239Z,3.57
2019-02-03T08:22:17.637Z,3.57
2019-02-03T08:23:19.030Z,3.72
2019-02-03T08:24:20.428Z,3.64
2019-02-03T08:25:21.828Z,3.64
2019-02-03T08:26:23.235Z,3.67
2019-02-03T08:27:24.588Z,3.67
2019-02-03T08:28:25.974Z,3.63
2019-02-03T08:29:27.390Z,3.64
2019-02-03T08:30:28.798Z,3.63
2019-02-03T08:31:30.202Z,3.70
2019-02-03T08:32:31.594Z,3.67
2019-02-03T08:33:32.996Z,3.60
2019-02-03T08:34:34.406Z,3.67
2019-02-03T08:35:35.802Z,3.64
2019-02-03T08:36:37.160Z,3.63
2019-02-03T08:37:38.560Z,3.67
2019-02-03T08:38:39.966Z,3.60
2019-02-03T08:39:41.408Z,3.67
2019-02-03T08:40:42.806Z,3.70
2019-02-03T08:41:44.206Z,3.77
2019-02-03T08:42:45.609Z,3.63
2019-02-03T08:43:47.022Z,3.63
2019-02-03T08:44:48.412Z,3.54
2019-02-03T08:45:49.776Z,3.74
2019-02-03T08:46:51.191Z,3.82
2019-02-03T08:47:52.589Z,3.70
2019-02-03T08:48:53.993Z,3.77
2019-02-03T08:49:55.399Z,3.82
2019-02-03T08:50:56.801Z,3.64
2019-02-03T08:51:58.222Z,3.52
2019-02-03T08:52:59.621Z,3.37
2019-02-03T08:54:01.017Z,3.39
2019-02-03T08:55:02.426Z,3.35
2019-02-03T08:56:03.782Z,3.25
2019-02-03T08:57:05.180Z,3.20
2019-02-03T08:58:06.594Z,3.15
2019-02-03T08:59:08.015Z,3.15
2019-02-03T09:00:09.414Z,3.13
2019-02-03T09:01:10.814Z,3.10
2019-02-03T09:02:12.207Z,3.13
2019-02-03T09:03:13.624Z,3.17
2019-02-03T09:04:15.019Z,3.22
2019-02-03T09:05:16.416Z,3.28
2019-02-03T09:06:17.796Z,3.39
2019-02-03T09:07:19.185Z,3.41
2019-02-03T09:08:20.580Z,3.49
2019-02-03T09:09:21.968Z,3.44
2019-02-03T09:10:23.384Z,3.50
2019-02-03T09:11:24.777Z,3.49
2019-02-03T09:12:26.180Z,3.60
2019-02-03T09:13:27.577Z,3.53
2019-02-03T09:14:28.982Z,3.60
2019-02-03T09:15:30.343Z,3.64
2019-02-03T09:16:31.745Z,3.78
2019-02-03T09:17:33.157Z,3.78
2019-02-03T09:18:35.110Z,3.78
2019-02-03T09:19:35.969Z,3.78
2019-02-03T09:20:37.378Z,3.86
2019-02-03T09:21:38.776Z,3.80
2019-02-03T09:22:40.219Z,3.92
2019-02-03T09:23:41.599Z,3.92
2019-02-03T09:24:42.995Z,3.92
2019-02-03T09:25:44.494Z,3.81
2019-02-03T09:26:45.903Z,3.80
2019-02-03T09:27:47.313Z,3.88
2019-02-03T09:28:48.809Z,3.98
2019-02-03T09:29:50.080Z,3.95
2019-02-03T09:30:51.524Z,3.92
2019-02-03T09:31:52.933Z,3.90
2019-02-03T09:32:54.332Z,3.98
2019-02-03T09:33:55.739Z,4.02
2019-02-03T09:34:57.144Z,4.07
2019-02-03T09:35:58.549Z,4.06
2019-02-03T09:36:59.958Z,4.07
2019-02-03T09:38:01.356Z,4.00
2019-02-03T09:39:02.760Z,4.10
2019-02-03T09:40:04.181Z,4.07
2019-02-03T09:41:05.576Z,4.07
2019-02-03T09:42:07.050Z,4.06
2019-02-03T09:43:08.454Z,4.10
2019-02-03T09:44:09.852Z,4.04
2019-02-03T09:45:11.208Z,4.02
2019-02-03T09:46:12.614Z,4.06
2019-02-03T09:47:14.032Z,4.08
2019-02-03T09:48:15.425Z,4.10
2019-02-03T09:49:16.830Z,4.08
2019-02-03T09:50:18.239Z,4.14
2019-02-03T09:51:19.639Z,4.14
2019-02-03T09:52:21.051Z,4.16
2019-02-03T09:53:22.465Z,4.20
2019-02-03T09:54:23.819Z,4.13
2019-02-03T09:55:25.219Z,4.13
2019-02-03T09:56:26.639Z,4.17
2019-02-03T09:57:28.044Z,4.14
2019-02-03T09:58:29.553Z,4.18
2019-02-03T09:59:30.848Z,4.13
2019-02-03T10:00:32.254Z,4.25
2019-02-03T10:01:33.664Z,4.25
2019-02-03T10:02:35.061Z,4.20
2019-02-03T10:03:36.499Z,4.26
2019-02-03T10:04:37.876Z,4.25
2019-02-03T10:05:39.286Z,4.28
2019-02-03T10:06:40.701Z,4.31
2019-02-03T10:07:42.104Z,4.26
2019-02-03T10:08:43.518Z,4.34
2019-02-03T10:09:44.951Z,4.25
2019-02-03T10:10:46.382Z,4.34
2019-02-03T10:11:47.788Z,4.29
2019-02-03T10:12:49.198Z,4.32
2019-02-03T10:13:50.567Z,4.28
2019-02-03T10:14:52.006Z,4.39
2019-02-03T10:15:53.454Z,4.31
2019-02-03T10:16:54.861Z,4.28
2019-02-03T10:17:56.304Z,4.29
2019-02-03T10:18:57.767Z,4.31
2019-02-03T10:19:59.194Z,4.35
2019-02-03T10:21:00.621Z,4.34
2019-02-03T10:22:02.050Z,4.32
2019-02-03T10:23:03.475Z,4.26
2019-02-03T10:24:04.850Z,4.32
2019-02-03T10:25:06.253Z,4.26
2019-02-03T10:26:08.367Z,4.28
2019-02-03T10:27:09.773Z,4.31
2019-02-03T10:28:11.211Z,4.28
2019-02-03T10:29:12.621Z,4.34
2019-02-03T10:30:14.016Z,4.29
2019-02-03T10:31:15.430Z,4.29
2019-02-03T10:32:16.854Z,4.35
2019-02-03T10:33:18.291Z,4.34
2019-02-03T10:34:19.676Z,4.28
2019-02-03T10:35:23.453Z,4.28
2019-02-03T10:36:22.606Z,4.36
2019-02-03T10:37:23.836Z,4.24
2019-02-03T10:38:25.265Z,4.29
2019-02-03T10:39:26.678Z,4.36
2019-02-03T10:40:28.096Z,4.46
2019-02-03T10:41:29.507Z,4.44
2019-02-03T10:42:30.907Z,4.42
2019-02-03T10:43:32.270Z,4.43
2019-02-03T10:44:33.699Z,4.46
2019-02-03T10:45:35.110Z,4.42
2019-02-03T10:46:36.525Z,4.43
2019-02-03T10:47:37.947Z,4.46
2019-02-03T10:48:39.349Z,4.43
2019-02-03T10:49:40.747Z,4.46
2019-02-03T10:50:42.150Z,4.39
2019-02-03T10:51:43.571Z,4.39
2019-02-03T10:52:44.961Z,4.38
2019-02-03T10:53:46.361Z,4.38
2019-02-03T10:54:47.937Z,4.29
2019-02-03T10:55:49.335Z,4.38
2019-02-03T10:56:50.741Z,4.35
2019-02-03T10:57:52.165Z,4.39
2019-02-03T10:58:53.573Z,4.29
2019-02-03T10:59:54.987Z,4.29
2019-02-03T11:00:56.398Z,4.36
2019-02-03T11:01:57.798Z,4.38
2019-02-03T11:02:59.157Z,4.35
2019-02-03T11:04:00.574Z,4.32
2019-02-03T11:05:01.973Z,4.28
2019-02-03T11:06:03.373Z,4.28
2019-02-03T11:07:04.772Z,4.29
2019-02-03T11:08:06.186Z,4.32
2019-02-03T11:09:07.587Z,4.29
2019-02-03T11:10:08.981Z,4.34
2019-02-03T11:11:10.386Z,4.28
2019-02-03T11:12:11.748Z,4.29
2019-02-03T11:13:13.153Z,4.26
2019-02-03T11:14:14.583Z,4.29
2019-02-03T11:15:15.981Z,4.29
2019-02-03T11:16:17.514Z,4.28
2019-02-03T11:17:18.937Z,4.28
2019-02-03T11:18:20.349Z,4.29
2019-02-03T11:19:21.771Z,4.32
2019-02-03T11:20:23.175Z,4.32
2019-02-03T11:21:24.557Z,4.31
2019-02-03T11:22:25.951Z,4.46
2019-02-03T11:23:27.370Z,4.47
2019-02-03T11:24:28.791Z,4.42
2019-02-03T11:25:30.209Z,4.43
2019-02-03T11:26:31.628Z,4.54
2019-02-03T11:27:33.040Z,4.44
2019-02-03T11:28:34.449Z,4.43
2019-02-03T11:29:35.863Z,4.46
2019-02-03T11:30:37.241Z,4.46
2019-02-03T11:31:38.645Z,4.38
2019-02-03T11:32:40.020Z,4.38
2019-02-03T11:33:41.431Z,4.47
2019-02-03T11:34:42.842Z,4.46
2019-02-03T11:35:44.241Z,4.50
2019-02-03T11:36:45.660Z,4.44
2019-02-03T11:37:47.064Z,4.46
2019-02-03T11:38:48.478Z,4.44
2019-02-03T11:39:49.936Z,4.47
2019-02-03T11:40:51.348Z,4.49
2019-02-03T11:41:52.742Z,4.36
2019-02-03T11:42:54.160Z,4.43
2019-02-03T11:43:55.535Z,4.49
2019-02-03T11:44:57.005Z,4.39
2019-02-03T11:45:58.413Z,4.51
2019-02-03T11:46:59.825Z,4.44
2019-02-03T11:48:01.265Z,4.46
2019-02-03T11:49:02.629Z,4.43
2019-02-03T11:50:04.042Z,4.51
2019-02-03T11:51:05.486Z,4.51
2019-02-03T11:52:06.895Z,4.50
2019-02-03T11:53:08.316Z,4.46
2019-02-03T11:54:09.737Z,4.46
2019-02-03T11:55:11.213Z,4.51
2019-02-03T11:56:12.618Z,4.59
2019-02-03T11:57:14.029Z,4.39
2019-02-03T11:58:15.402Z,4.35
2019-02-03T11:59:16.890Z,4.43
2019-02-03T12:00:18.253Z,4.35
2019-02-03T12:01:19.667Z,4.43
2019-02-03T12:02:21.066Z,4.38
2019-02-03T12:03:23.329Z,4.38
2019-02-03T12:04:24.734Z,4.36
2019-02-03T12:05:26.137Z,4.47
2019-02-03T12:06:27.547Z,4.46
2019-02-03T12:07:28.968Z,4.38
2019-02-03T12:08:30.368Z,4.35
2019-02-03T12:09:31.769Z,4.29
2019-02-03T12:10:33.180Z,4.28
2019-02-03T12:11:34.720Z,4.29
2019-02-03T12:12:35.947Z,4.32
2019-02-03T12:13:37.358Z,4.32
2019-02-03T12:14:38.775Z,4.29
2019-02-03T12:15:40.172Z,4.32
2019-02-03T12:16:41.569Z,4.32
2019-02-03T12:17:42.974Z,4.28
2019-02-03T12:18:44.347Z,4.26
2019-02-03T12:19:45.763Z,4.29
2019-02-03T12:20:47.159Z,4.26
2019-02-03T12:21:48.590Z,4.28
2019-02-03T12:22:50.015Z,4.31
2019-02-03T12:23:51.675Z,4.28
2019-02-03T12:24:53.085Z,4.32
2019-02-03T12:25:54.489Z,4.28
2019-02-03T12:26:55.902Z,4.31
2019-02-03T12:27:57.305Z,4.38
2019-02-03T12:28:58.673Z,4.28
2019-02-03T12:30:00.195Z,4.26
2019-02-03T12:31:01.476Z,4.26
2019-02-03T12:32:02.872Z,4.38
2019-02-03T12:33:04.288Z,4.43
2019-02-03T12:34:05.699Z,4.42
2019-02-03T12:35:07.113Z,4.32
2019-02-03T12:36:08.528Z,4.36
2019-02-03T12:37:09.926Z,4.43
2019-02-03T12:38:11.332Z,4.42
2019-02-03T12:39:12.683Z,4.47
2019-02-03T12:40:14.091Z,4.46
2019-02-03T12:41:15.528Z,4.47
2019-02-03T12:42:16.929Z,4.47
2019-02-03T12:43:18.347Z,4.42
2019-02-03T12:44:19.751Z,4.46
2019-02-03T12:45:21.160Z,4.38
2019-02-03T12:46:22.625Z,4.43
2019-02-03T12:47:24.031Z,4.50
2019-02-03T12:48:25.464Z,4.38
2019-02-03T12:49:27.478Z,4.39
2019-02-03T12:50:28.884Z,4.43
2019-02-03T12:51:30.299Z,4.36
2019-02-03T12:52:31.702Z,4.36
2019-02-03T12:53:33.108Z,4.36
2019-02-03T12:54:34.578Z,4.46
2019-02-03T12:55:35.990Z,4.42
2019-02-03T12:56:37.391Z,4.34
2019-02-03T12:57:38.788Z,4.42
2019-02-03T12:58:40.174Z,4.43
2019-02-03T12:59:41.571Z,4.46
2019-02-03T13:00:42.995Z,4.56
2019-02-03T13:01:44.492Z,4.43
2019-02-03T13:02:45.959Z,4.47
2019-02-03T13:03:47.395Z,4.51
2019-02-03T13:04:48.921Z,4.53
2019-02-03T13:05:50.400Z,4.54
2019-02-03T13:06:51.844Z,4.56
2019-02-03T13:07:53.346Z,4.57
2019-02-03T13:08:54.658Z,4.61
2019-02-03T13:09:56.100Z,4.57
2019-02-03T13:10:57.483Z,4.57
2019-02-03T13:11:58.910Z,4.62
2019-02-03T13:13:00.341Z,4.54
2019-02-03T13:14:01.763Z,4.57
2019-02-03T13:15:03.228Z,4.61
2019-02-03T13:16:04.737Z,4.53
2019-02-03T13:17:06.258Z,4.54
2019-02-03T13:18:07.677Z,4.61
2019-02-03T13:19:09.083Z,4.57
2019-02-03T13:20:10.485Z,4.59
2019-02-03T13:21:11.919Z,4.57
2019-02-03T13:22:13.345Z,4.56
2019-02-03T13:23:14.756Z,4.59
2019-02-03T13:24:18.529Z,4.57
2019-02-03T13:25:18.410Z,4.59
2019-02-03T13:26:22.547Z,4.56
2019-02-03T13:27:21.942Z,4.57
2019-02-03T13:28:23.353Z,4.65
2019-02-03T13:29:24.739Z,4.54
2019-02-03T13:30:26.246Z,4.59
2019-02-03T13:31:27.644Z,4.57
2019-02-03T13:32:29.108Z,4.46
2019-02-03T13:33:30.569Z,4.42
2019-02-03T13:34:31.999Z,4.38
2019-02-03T13:35:33.470Z,4.34
2019-02-03T13:36:34.889Z,4.39
2019-02-03T13:37:36.300Z,4.46